sensor_id;sensor_type;location;lat;lon;timestamp;pressure;altitude;pressure_sealevel;temperature;humidity
9740;BME280;4909;42.680;26.324;2023-02-18T00:02:14;99222.38;;;9.60;49.90
9740;BME280;4909;42.680;26.324;2023-02-18T00:04:41;99223.97;;;9.38;50.15
9740;BME280;4909;42.680;26.324;2023-02-18T00:07:08;99222.06;;;9.42;50.50
9740;BME280;4909;42.680;26.324;2023-02-18T00:09:34;99222.38;;;9.31;50.71
9740;BME280;4909;42.680;26.324;2023-02-18T00:12:03;99217.03;;;9.34;50.49
9740;BME280;4909;42.680;26.324;2023-02-18T00:14:29;99219.59;;;9.36;50.07
9740;BME280;4909;42.680;26.324;2023-02-18T00:16:56;99209.25;;;9.28;50.40
9740;BME280;4909;42.680;26.324;2023-02-18T00:19:23;99204.09;;;9.24;50.62
9740;BME280;4909;42.680;26.324;2023-02-18T00:21:50;99202.63;;;9.13;50.62
9740;BME280;4909;42.680;26.324;2023-02-18T00:24:16;99194.41;;;9.23;50.31
9740;BME280;4909;42.680;26.324;2023-02-18T00:26:43;99204.75;;;9.30;50.13
9740;BME280;4909;42.680;26.324;2023-02-18T00:29:11;99196.66;;;9.35;50.02
9740;BME280;4909;42.680;26.324;2023-02-18T00:31:39;99186.28;;;9.29;50.05
9740;BME280;4909;42.680;26.324;2023-02-18T00:34:06;99188.34;;;9.47;49.43
9740;BME280;4909;42.680;26.324;2023-02-18T00:36:34;99180.56;;;9.42;50.06
9740;BME280;4909;42.680;26.324;2023-02-18T00:39:03;99178.97;;;9.37;50.10
9740;BME280;4909;42.680;26.324;2023-02-18T00:41:30;99172.09;;;9.30;50.62
9740;BME280;4909;42.680;26.324;2023-02-18T00:43:57;99167.81;;;9.26;50.75
9740;BME280;4909;42.680;26.324;2023-02-18T00:46:27;99172.81;;;9.07;50.52
9740;BME280;4909;42.680;26.324;2023-02-18T00:48:54;99174.38;;;9.14;49.66
9740;BME280;4909;42.680;26.324;2023-02-18T00:51:21;99178.38;;;9.27;50.29
9740;BME280;4909;42.680;26.324;2023-02-18T00:53:49;99180.53;;;9.14;49.61
9740;BME280;4909;42.680;26.324;2023-02-18T00:56:16;99181.59;;;9.09;50.91
9740;BME280;4909;42.680;26.324;2023-02-18T00:58:43;99177.88;;;8.85;51.10
9740;BME280;4909;42.680;26.324;2023-02-18T01:01:10;99181.44;;;8.84;51.86
9740;BME280;4909;42.680;26.324;2023-02-18T01:03:40;99176.28;;;8.80;52.09
9740;BME280;4909;42.680;26.324;2023-02-18T01:06:08;99169.38;;;8.74;52.35
9740;BME280;4909;42.680;26.324;2023-02-18T01:08:37;99163.75;;;8.55;52.81
9740;BME280;4909;42.680;26.324;2023-02-18T01:11:04;99156.38;;;8.34;53.25
9740;BME280;4909;42.680;26.324;2023-02-18T01:13:32;99157.84;;;8.12;54.06
9740;BME280;4909;42.680;26.324;2023-02-18T01:16:00;99158.47;;;8.21;54.40
9740;BME280;4909;42.680;26.324;2023-02-18T01:18:27;99149.00;;;8.47;53.75
9740;BME280;4909;42.680;26.324;2023-02-18T01:20:55;99156.19;;;8.42;53.02
9740;BME280;4909;42.680;26.324;2023-02-18T01:23:22;99152.69;;;8.40;53.06
9740;BME280;4909;42.680;26.324;2023-02-18T01:25:49;99149.19;;;8.39;53.47
9740;BME280;4909;42.680;26.324;2023-02-18T01:28:17;99125.38;;;8.39;53.36
9740;BME280;4909;42.680;26.324;2023-02-18T01:30:45;99159.13;;;8.62;53.07
9740;BME280;4909;42.680;26.324;2023-02-18T01:33:12;99142.59;;;8.54;53.48
9740;BME280;4909;42.680;26.324;2023-02-18T01:35:39;99139.03;;;8.56;53.17
9740;BME280;4909;42.680;26.324;2023-02-18T01:38:08;99135.41;;;8.59;52.91
9740;BME280;4909;42.680;26.324;2023-02-18T01:40:35;99137.13;;;8.61;52.89
9740;BME280;4909;42.680;26.324;2023-02-18T01:43:02;99116.78;;;8.62;52.79
9740;BME280;4909;42.680;26.324;2023-02-18T01:45:56;99127.84;;;8.47;53.34
9740;BME280;4909;42.680;26.324;2023-02-18T01:48:28;99123.72;;;8.37;53.64
9740;BME280;4909;42.680;26.324;2023-02-18T01:50:59;99126.75;;;8.21;53.64
9740;BME280;4909;42.680;26.324;2023-02-18T01:53:32;99092.81;;;8.05;54.67
9740;BME280;4909;42.680;26.324;2023-02-18T01:56:03;99115.31;;;8.19;54.03
9740;BME280;4909;42.680;26.324;2023-02-18T01:58:32;99122.72;;;8.07;54.34
9740;BME280;4909;42.680;26.324;2023-02-18T02:00:59;99114.63;;;8.13;54.97
9740;BME280;4909;42.680;26.324;2023-02-18T02:03:25;99121.84;;;8.06;55.08
9740;BME280;4909;42.680;26.324;2023-02-18T02:05:52;99112.66;;;8.21;54.81
9740;BME280;4909;42.680;26.324;2023-02-18T02:08:19;99110.03;;;8.19;55.00
9740;BME280;4909;42.680;26.324;2023-02-18T02:10:59;99111.53;;;8.28;54.55
9740;BME280;4909;42.680;26.324;2023-02-18T02:13:35;99111.91;;;8.16;55.10
9740;BME280;4909;42.680;26.324;2023-02-18T02:16:10;99098.81;;;8.11;54.57
9740;BME280;4909;42.680;26.324;2023-02-18T02:18:49;99108.94;;;7.60;56.48
9740;BME280;4909;42.680;26.324;2023-02-18T02:21:47;99111.25;;;7.38;57.86
9740;BME280;4909;42.680;26.324;2023-02-18T02:27:25;99110.63;;;7.29;58.21
9740;BME280;4909;42.680;26.324;2023-02-18T02:30:32;99100.69;;;7.38;57.97
9740;BME280;4909;42.680;26.324;2023-02-18T02:33:28;99097.75;;;7.51;57.75
9740;BME280;4909;42.680;26.324;2023-02-18T02:36:08;99089.16;;;7.42;57.59
9740;BME280;4909;42.680;26.324;2023-02-18T02:38:43;99107.25;;;7.59;57.67
9740;BME280;4909;42.680;26.324;2023-02-18T02:41:26;99098.16;;;7.35;58.06
9740;BME280;4909;42.680;26.324;2023-02-18T02:44:04;99098.78;;;7.45;58.17
9740;BME280;4909;42.680;26.324;2023-02-18T02:46:36;99084.66;;;7.46;57.87
9740;BME280;4909;42.680;26.324;2023-02-18T02:49:14;99099.25;;;7.61;57.28
9740;BME280;4909;42.680;26.324;2023-02-18T02:51:46;99095.84;;;7.56;57.35
9740;BME280;4909;42.680;26.324;2023-02-18T02:54:18;99101.66;;;7.70;56.52
9740;BME280;4909;42.680;26.324;2023-02-18T02:56:46;99077.03;;;7.69;56.11
9740;BME280;4909;42.680;26.324;2023-02-18T02:59:15;99104.84;;;7.84;55.55
9740;BME280;4909;42.680;26.324;2023-02-18T03:01:55;99102.34;;;7.78;56.37
9740;BME280;4909;42.680;26.324;2023-02-18T03:04:34;99110.69;;;7.61;56.75
9740;BME280;4909;42.680;26.324;2023-02-18T03:07:18;99106.00;;;7.72;56.57
9740;BME280;4909;42.680;26.324;2023-02-18T03:10:07;99110.03;;;7.87;56.26
9740;BME280;4909;42.680;26.324;2023-02-18T03:12:42;99106.94;;;8.04;55.16
9740;BME280;4909;42.680;26.324;2023-02-18T03:15:15;99107.53;;;7.81;55.77
9740;BME280;4909;42.680;26.324;2023-02-18T03:17:52;99110.28;;;7.78;56.05
9740;BME280;4909;42.680;26.324;2023-02-18T03:20:25;99114.31;;;7.91;55.67
9740;BME280;4909;42.680;26.324;2023-02-18T03:22:55;99118.56;;;7.98;55.11
9740;BME280;4909;42.680;26.324;2023-02-18T03:25:23;99116.47;;;8.09;54.60
9740;BME280;4909;42.680;26.324;2023-02-18T03:27:52;99110.25;;;8.12;54.30
9740;BME280;4909;42.680;26.324;2023-02-18T03:30:24;99109.56;;;8.04;54.94
9740;BME280;4909;42.680;26.324;2023-02-18T03:32:55;99115.69;;;8.06;54.40
9740;BME280;4909;42.680;26.324;2023-02-18T03:35:23;99119.13;;;8.09;54.91
9740;BME280;4909;42.680;26.324;2023-02-18T03:37:56;99119.13;;;8.09;54.57
9740;BME280;4909;42.680;26.324;2023-02-18T03:40:26;99105.03;;;8.09;53.93
9740;BME280;4909;42.680;26.324;2023-02-18T03:42:52;99120.97;;;8.07;54.10
9740;BME280;4909;42.680;26.324;2023-02-18T03:45:20;99115.28;;;8.21;54.16
9740;BME280;4909;42.680;26.324;2023-02-18T03:47:47;99112.84;;;8.13;53.86
9740;BME280;4909;42.680;26.324;2023-02-18T03:50:13;99102.91;;;7.89;54.92
9740;BME280;4909;42.680;26.324;2023-02-18T03:52:40;99117.84;;;7.92;55.18
9740;BME280;4909;42.680;26.324;2023-02-18T03:55:09;99112.94;;;7.76;55.61
9740;BME280;4909;42.680;26.324;2023-02-18T03:57:35;99107.34;;;7.55;56.28
9740;BME280;4909;42.680;26.324;2023-02-18T04:00:03;99119.56;;;7.59;57.00
9740;BME280;4909;42.680;26.324;2023-02-18T04:02:31;99116.06;;;7.58;56.70
9740;BME280;4909;42.680;26.324;2023-02-18T04:04:58;99121.47;;;7.54;56.87
9740;BME280;4909;42.680;26.324;2023-02-18T04:07:25;99116.28;;;7.49;57.00
9740;BME280;4909;42.680;26.324;2023-02-18T04:09:52;99122.88;;;7.67;56.91
9740;BME280;4909;42.680;26.324;2023-02-18T04:12:20;99124.72;;;7.65;57.01
9740;BME280;4909;42.680;26.324;2023-02-18T04:14:47;99119.56;;;7.59;57.69
9740;BME280;4909;42.680;26.324;2023-02-18T04:17:13;99118.25;;;7.75;56.63
9740;BME280;4909;42.680;26.324;2023-02-18T04:19:40;99114.59;;;7.80;56.70
9740;BME280;4909;42.680;26.324;2023-02-18T04:22:07;99110.75;;;7.60;57.35
9740;BME280;4909;42.680;26.324;2023-02-18T04:24:34;99120.44;;;7.59;57.31
9740;BME280;4909;42.680;26.324;2023-02-18T04:27:00;99102.50;;;7.36;58.35
9740;BME280;4909;42.680;26.324;2023-02-18T04:29:29;99089.69;;;7.57;57.63
9740;BME280;4909;42.680;26.324;2023-02-18T04:31:55;99044.72;;;7.60;56.55
9740;BME280;4909;42.680;26.324;2023-02-18T04:34:22;99093.81;;;8.01;55.78
9740;BME280;4909;42.680;26.324;2023-02-18T04:36:49;99088.78;;;7.92;56.07
9740;BME280;4909;42.680;26.324;2023-02-18T04:39:15;99087.72;;;7.99;55.25
9740;BME280;4909;42.680;26.324;2023-02-18T04:41:42;99080.50;;;8.04;55.50
9740;BME280;4909;42.680;26.324;2023-02-18T04:44:09;99079.88;;;7.94;55.20
9740;BME280;4909;42.680;26.324;2023-02-18T04:46:37;99079.66;;;8.03;55.50
9740;BME280;4909;42.680;26.324;2023-02-18T04:49:04;99079.88;;;7.94;55.71
9740;BME280;4909;42.680;26.324;2023-02-18T04:51:31;99085.69;;;8.08;55.65
9740;BME280;4909;42.680;26.324;2023-02-18T04:53:57;99078.31;;;8.19;54.64
9740;BME280;4909;42.680;26.324;2023-02-18T04:56:24;99072.72;;;8.32;54.80
9740;BME280;4909;42.680;26.324;2023-02-18T04:58:51;99076.84;;;8.42;54.62
9740;BME280;4909;42.680;26.324;2023-02-18T05:01:18;99076.59;;;8.49;53.91
9740;BME280;4909;42.680;26.324;2023-02-18T05:03:46;99068.94;;;8.40;54.67
9740;BME280;4909;42.680;26.324;2023-02-18T05:06:13;99061.38;;;7.94;54.78
9740;BME280;4909;42.680;26.324;2023-02-18T05:08:39;99070.16;;;7.96;55.47
9740;BME280;4909;42.680;26.324;2023-02-18T05:11:07;99060.13;;;7.75;56.09
9740;BME280;4909;42.680;26.324;2023-02-18T05:13:34;99081.72;;;7.92;55.80
9740;BME280;4909;42.680;26.324;2023-02-18T05:16:01;99082.91;;;8.13;54.42
9740;BME280;4909;42.680;26.324;2023-02-18T05:18:27;99091.50;;;8.21;54.64
9740;BME280;4909;42.680;26.324;2023-02-18T05:20:55;99092.66;;;8.11;54.95
9740;BME280;4909;42.680;26.324;2023-02-18T05:23:22;99093.53;;;8.11;55.08
9740;BME280;4909;42.680;26.324;2023-02-18T05:25:50;99088.41;;;8.04;54.88
9740;BME280;4909;42.680;26.324;2023-02-18T05:28:17;99101.00;;;7.96;54.97
9740;BME280;4909;42.680;26.324;2023-02-18T05:30:43;99097.28;;;8.03;55.63
9740;BME280;4909;42.680;26.324;2023-02-18T05:33:11;99094.44;;;8.09;56.16
9740;BME280;4909;42.680;26.324;2023-02-18T05:35:38;99094.34;;;8.46;54.34
9740;BME280;4909;42.680;26.324;2023-02-18T05:38:06;99105.22;;;8.66;53.86
9740;BME280;4909;42.680;26.324;2023-02-18T05:40:34;99103.91;;;8.81;53.36
9740;BME280;4909;42.680;26.324;2023-02-18T05:43:01;99098.09;;;8.97;51.97
9740;BME280;4909;42.680;26.324;2023-02-18T05:45:27;99103.78;;;8.85;51.89
9740;BME280;4909;42.680;26.324;2023-02-18T05:47:54;99107.16;;;8.59;53.97
9740;BME280;4909;42.680;26.324;2023-02-18T05:50:21;99113.94;;;8.69;53.57
9740;BME280;4909;42.680;26.324;2023-02-18T05:52:47;99116.44;;;8.74;53.35
9740;BME280;4909;42.680;26.324;2023-02-18T05:55:16;99113.94;;;8.69;52.98
9740;BME280;4909;42.680;26.324;2023-02-18T05:57:42;99116.28;;;8.80;52.62
9740;BME280;4909;42.680;26.324;2023-02-18T06:00:10;99109.72;;;8.62;53.44
9740;BME280;4909;42.680;26.324;2023-02-18T06:02:37;99111.16;;;8.43;53.93
9740;BME280;4909;42.680;26.324;2023-02-18T06:05:05;99115.41;;;8.49;53.94
9740;BME280;4909;42.680;26.324;2023-02-18T06:07:31;99118.22;;;8.73;53.11
9740;BME280;4909;42.680;26.324;2023-02-18T06:09:58;99117.50;;;8.98;52.12
9740;BME280;4909;42.680;26.324;2023-02-18T06:12:26;99117.38;;;9.01;51.58
9740;BME280;4909;42.680;26.324;2023-02-18T06:14:53;99111.69;;;9.14;52.11
9740;BME280;4909;42.680;26.324;2023-02-18T06:17:20;99116.34;;;9.34;50.96
9740;BME280;4909;42.680;26.324;2023-02-18T06:19:47;99104.75;;;9.38;51.08
9740;BME280;4909;42.680;26.324;2023-02-18T06:22:13;99100.56;;;9.57;50.75
9740;BME280;4909;42.680;26.324;2023-02-18T06:24:40;99093.78;;;9.75;50.54
9740;BME280;4909;42.680;26.324;2023-02-18T06:27:07;99098.75;;;9.84;48.70
9740;BME280;4909;42.680;26.324;2023-02-18T06:29:35;99092.22;;;9.94;49.84
9740;BME280;4909;42.680;26.324;2023-02-18T06:32:02;99105.66;;;10.15;48.64
9740;BME280;4909;42.680;26.324;2023-02-18T06:34:29;99093.06;;;9.96;49.89
9740;BME280;4909;42.680;26.324;2023-02-18T06:36:55;99090.88;;;10.08;48.80
9740;BME280;4909;42.680;26.324;2023-02-18T06:39:22;99087.94;;;10.17;49.65
9740;BME280;4909;42.680;26.324;2023-02-18T06:41:49;99091.59;;;10.13;49.25
9740;BME280;4909;42.680;26.324;2023-02-18T06:44:15;99087.00;;;10.18;48.75
9740;BME280;4909;42.680;26.324;2023-02-18T06:46:44;99085.56;;;10.34;47.81
9740;BME280;4909;42.680;26.324;2023-02-18T06:49:10;99094.03;;;10.43;47.37
9740;BME280;4909;42.680;26.324;2023-02-18T06:51:37;99092.09;;;10.49;47.19
9740;BME280;4909;42.680;26.324;2023-02-18T06:54:04;99088.09;;;10.37;47.80
9740;BME280;4909;42.680;26.324;2023-02-18T06:56:31;99094.91;;;10.44;47.02
9740;BME280;4909;42.680;26.324;2023-02-18T06:58:58;99088.16;;;10.59;46.50
9740;BME280;4909;42.680;26.324;2023-02-18T07:01:24;99090.72;;;10.37;46.64
9740;BME280;4909;42.680;26.324;2023-02-18T07:03:53;99080.75;;;10.20;47.60
9740;BME280;4909;42.680;26.324;2023-02-18T07:06:19;99077.63;;;10.08;48.36
9740;BME280;4909;42.680;26.324;2023-02-18T07:08:46;99076.41;;;10.18;48.57
9740;BME280;4909;42.680;26.324;2023-02-18T07:11:13;99084.81;;;10.30;47.80
9740;BME280;4909;42.680;26.324;2023-02-18T07:13:39;99069.25;;;10.44;47.28
9740;BME280;4909;42.680;26.324;2023-02-18T07:16:06;99077.25;;;10.66;46.41
9740;BME280;4909;42.680;26.324;2023-02-18T07:18:33;99080.66;;;10.46;46.38
9740;BME280;4909;42.680;26.324;2023-02-18T07:21:01;99078.50;;;10.33;46.19
9740;BME280;4909;42.680;26.324;2023-02-18T07:23:28;99081.69;;;10.42;45.69
9740;BME280;4909;42.680;26.324;2023-02-18T07:26:02;99081.34;;;10.52;45.83
9740;BME280;4909;42.680;26.324;2023-02-18T07:28:29;99083.91;;;10.55;45.88
9740;BME280;4909;42.680;26.324;2023-02-18T07:30:55;99072.19;;;10.83;45.84
9740;BME280;4909;42.680;26.324;2023-02-18T07:33:22;99067.97;;;11.00;45.73
9740;BME280;4909;42.680;26.324;2023-02-18T07:35:52;99063.00;;;11.14;45.11
9740;BME280;4909;42.680;26.324;2023-02-18T07:38:21;99057.94;;;11.08;45.28
9740;BME280;4909;42.680;26.324;2023-02-18T07:40:47;99064.59;;;10.96;44.93
9740;BME280;4909;42.680;26.324;2023-02-18T07:43:14;99072.31;;;11.02;45.36
9740;BME280;4909;42.680;26.324;2023-02-18T07:45:41;99067.63;;;11.09;45.15
9740;BME280;4909;42.680;26.324;2023-02-18T07:48:08;99060.22;;;11.17;44.83
9740;BME280;4909;42.680;26.324;2023-02-18T07:50:37;99042.56;;;11.16;44.58
9740;BME280;4909;42.680;26.324;2023-02-18T07:53:04;99072.31;;;11.24;44.23
9740;BME280;4909;42.680;26.324;2023-02-18T07:55:33;99048.97;;;10.88;44.48
9740;BME280;4909;42.680;26.324;2023-02-18T07:58:32;99058.44;;;10.72;45.33
9740;BME280;4909;42.680;26.324;2023-02-18T08:01:02;99064.09;;;10.63;46.03
9740;BME280;4909;42.680;26.324;2023-02-18T08:03:30;99061.47;;;10.63;46.01
9740;BME280;4909;42.680;26.324;2023-02-18T08:05:58;99063.41;;;10.58;46.20
9740;BME280;4909;42.680;26.324;2023-02-18T08:08:25;99055.91;;;10.69;46.17
9740;BME280;4909;42.680;26.324;2023-02-18T08:10:55;99030.00;;;10.53;46.40
9740;BME280;4909;42.680;26.324;2023-02-18T08:13:22;99053.84;;;10.54;47.11
9740;BME280;4909;42.680;26.324;2023-02-18T08:15:53;99050.28;;;10.55;47.51
9740;BME280;4909;42.680;26.324;2023-02-18T08:18:22;99053.16;;;10.49;47.43
9740;BME280;4909;42.680;26.324;2023-02-18T08:20:49;99045.06;;;10.52;46.69
9740;BME280;4909;42.680;26.324;2023-02-18T08:23:18;99036.75;;;10.38;47.46
9740;BME280;4909;42.680;26.324;2023-02-18T08:25:46;99044.66;;;10.39;47.80
9740;BME280;4909;42.680;26.324;2023-02-18T08:28:12;99037.91;;;10.31;47.78
9740;BME280;4909;42.680;26.324;2023-02-18T08:30:43;99034.69;;;10.69;47.16
9740;BME280;4909;42.680;26.324;2023-02-18T08:33:12;99014.06;;;10.76;46.30
9740;BME280;4909;42.680;26.324;2023-02-18T08:35:39;99026.53;;;10.96;46.07
9740;BME280;4909;42.680;26.324;2023-02-18T08:38:05;99029.09;;;10.99;45.65
9740;BME280;4909;42.680;26.324;2023-02-18T08:40:32;99020.63;;;11.11;45.66
9740;BME280;4909;42.680;26.324;2023-02-18T08:42:59;99024.03;;;10.93;45.96
9740;BME280;4909;42.680;26.324;2023-02-18T08:45:26;99026.31;;;11.02;46.52
9740;BME280;4909;42.680;26.324;2023-02-18T08:47:53;99032.59;;;11.21;45.67
9740;BME280;4909;42.680;26.324;2023-02-18T08:50:21;99024.75;;;11.40;45.23
9740;BME280;4909;42.680;26.324;2023-02-18T08:52:51;99036.66;;;11.51;45.25
9740;BME280;4909;42.680;26.324;2023-02-18T08:55:18;99026.66;;;11.78;44.57
9740;BME280;4909;42.680;26.324;2023-02-18T08:57:46;99022.78;;;11.65;44.10
9740;BME280;4909;42.680;26.324;2023-02-18T09:00:13;99018.19;;;11.90;43.88
9740;BME280;4909;42.680;26.324;2023-02-18T09:02:41;98999.03;;;11.18;45.42
9740;BME280;4909;42.680;26.324;2023-02-18T09:05:08;99016.84;;;11.58;45.00
9740;BME280;4909;42.680;26.324;2023-02-18T09:07:36;99019.09;;;11.89;44.57
9740;BME280;4909;42.680;26.324;2023-02-18T09:10:04;99012.25;;;12.04;43.54
9740;BME280;4909;42.680;26.324;2023-02-18T09:12:31;99006.19;;;12.00;43.68
9740;BME280;4909;42.680;26.324;2023-02-18T09:14:58;99007.13;;;12.57;42.11
9740;BME280;4909;42.680;26.324;2023-02-18T09:17:27;99011.28;;;13.00;40.86
9740;BME280;4909;42.680;26.324;2023-02-18T09:19:54;99015.22;;;13.12;40.73
9740;BME280;4909;42.680;26.324;2023-02-18T09:22:21;99011.06;;;13.23;39.79
9740;BME280;4909;42.680;26.324;2023-02-18T09:24:50;99003.78;;;13.08;40.29
9740;BME280;4909;42.680;26.324;2023-02-18T09:27:17;99010.94;;;13.26;40.19
9740;BME280;4909;42.680;26.324;2023-02-18T09:29:44;99000.56;;;13.01;40.00
9740;BME280;4909;42.680;26.324;2023-02-18T09:32:10;99002.53;;;12.79;40.38
9740;BME280;4909;42.680;26.324;2023-02-18T09:34:37;98991.59;;;12.29;41.33
9740;BME280;4909;42.680;26.324;2023-02-18T09:37:04;98989.25;;;12.22;41.61
9740;BME280;4909;42.680;26.324;2023-02-18T09:39:31;98994.03;;;12.52;40.72
9740;BME280;4909;42.680;26.324;2023-02-18T09:42:01;98983.66;;;12.65;40.32
9740;BME280;4909;42.680;26.324;2023-02-18T09:44:31;98982.16;;;12.41;40.73
9740;BME280;4909;42.680;26.324;2023-02-18T09:47:02;98992.03;;;12.39;41.24
9740;BME280;4909;42.680;26.324;2023-02-18T09:49:32;98975.84;;;12.25;41.01
9740;BME280;4909;42.680;26.324;2023-02-18T09:52:09;98975.25;;;12.74;39.69
9740;BME280;4909;42.680;26.324;2023-02-18T09:54:37;98971.13;;;12.30;40.84
9740;BME280;4909;42.680;26.324;2023-02-18T09:57:15;98968.28;;;12.53;41.15
9740;BME280;4909;42.680;26.324;2023-02-18T09:59:43;98974.97;;;12.43;41.17
9740;BME280;4909;42.680;26.324;2023-02-18T10:02:13;98966.31;;;12.00;41.96
9740;BME280;4909;42.680;26.324;2023-02-18T10:04:43;98964.94;;;11.29;43.57
9740;BME280;4909;42.680;26.324;2023-02-18T10:07:19;98968.31;;;10.91;45.44
9740;BME280;4909;42.680;26.324;2023-02-18T10:09:49;98970.78;;;10.96;45.60
9740;BME280;4909;42.680;26.324;2023-02-18T10:12:21;98967.84;;;11.23;44.73
9740;BME280;4909;42.680;26.324;2023-02-18T10:14:50;98961.56;;;11.46;44.30
9740;BME280;4909;42.680;26.324;2023-02-18T10:17:17;98966.59;;;11.52;44.23
9740;BME280;4909;42.680;26.324;2023-02-18T10:19:46;98964.16;;;11.68;43.99
9740;BME280;4909;42.680;26.324;2023-02-18T10:22:16;98957.88;;;11.91;43.78
9740;BME280;4909;42.680;26.324;2023-02-18T10:24:46;98961.69;;;12.04;42.72
9740;BME280;4909;42.680;26.324;2023-02-18T10:27:20;98963.34;;;12.06;42.49
9740;BME280;4909;42.680;26.324;2023-02-18T10:29:51;98964.78;;;11.95;43.12
9740;BME280;4909;42.680;26.324;2023-02-18T10:32:22;98953.56;;;12.07;43.00
9740;BME280;4909;42.680;26.324;2023-02-18T10:34:53;98963.66;;;12.38;42.42
9740;BME280;4909;42.680;26.324;2023-02-18T10:37:34;98942.66;;;12.32;42.15
9740;BME280;4909;42.680;26.324;2023-02-18T10:40:09;98957.03;;;12.28;42.32
9740;BME280;4909;42.680;26.324;2023-02-18T10:42:47;98947.41;;;11.66;43.64
9740;BME280;4909;42.680;26.324;2023-02-18T10:45:25;98943.56;;;11.73;43.83
9740;BME280;4909;42.680;26.324;2023-02-18T10:48:04;98941.75;;;11.94;43.57
9740;BME280;4909;42.680;26.324;2023-02-18T10:50:37;98945.25;;;12.14;42.92
9740;BME280;4909;42.680;26.324;2023-02-18T10:53:10;98929.28;;;12.14;42.54
9740;BME280;4909;42.680;26.324;2023-02-18T10:55:39;98946.41;;;12.28;42.27
9740;BME280;4909;42.680;26.324;2023-02-18T10:58:27;98919.19;;;12.21;41.96
9740;BME280;4909;42.680;26.324;2023-02-18T11:00:55;98915.00;;;11.97;41.99
9740;BME280;4909;42.680;26.324;2023-02-18T11:03:24;98928.41;;;11.95;42.52
9740;BME280;4909;42.680;26.324;2023-02-18T11:05:54;98884.00;;;11.96;42.06
9740;BME280;4909;42.680;26.324;2023-02-18T11:08:23;98912.28;;;12.36;41.44
9740;BME280;4909;42.680;26.324;2023-02-18T11:10:52;98923.13;;;12.69;40.62
9740;BME280;4909;42.680;26.324;2023-02-18T11:13:25;98909.09;;;12.65;40.34
9740;BME280;4909;42.680;26.324;2023-02-18T11:15:57;98900.06;;;12.50;40.48
9740;BME280;4909;42.680;26.324;2023-02-18T11:18:36;98903.91;;;12.81;40.72
9740;BME280;4909;42.680;26.324;2023-02-18T11:21:05;98871.00;;;12.82;40.03
9740;BME280;4909;42.680;26.324;2023-02-18T11:23:46;98879.47;;;12.90;40.02
9740;BME280;4909;42.680;26.324;2023-02-18T11:26:15;98877.84;;;12.69;40.43
9740;BME280;4909;42.680;26.324;2023-02-18T11:28:45;98868.53;;;12.60;40.81
9740;BME280;4909;42.680;26.324;2023-02-18T11:31:20;98872.03;;;12.43;41.28
9740;BME280;4909;42.680;26.324;2023-02-18T11:33:50;98858.47;;;12.48;41.21
9740;BME280;4909;42.680;26.324;2023-02-18T11:36:21;98844.31;;;12.64;40.64
9740;BME280;4909;42.680;26.324;2023-02-18T11:38:51;98859.16;;;12.70;40.93
9740;BME280;4909;42.680;26.324;2023-02-18T11:41:22;98850.16;;;12.73;40.46
9740;BME280;4909;42.680;26.324;2023-02-18T11:43:55;98841.06;;;12.41;41.37
9740;BME280;4909;42.680;26.324;2023-02-18T11:46:25;98854.25;;;12.44;41.51
9740;BME280;4909;42.680;26.324;2023-02-18T11:48:52;98842.41;;;12.49;41.26
9740;BME280;4909;42.680;26.324;2023-02-18T11:51:23;98856.72;;;12.66;40.85
9740;BME280;4909;42.680;26.324;2023-02-18T11:53:59;98848.66;;;12.67;40.98
9740;BME280;4909;42.680;26.324;2023-02-18T11:56:28;98853.06;;;12.85;40.53
9740;BME280;4909;42.680;26.324;2023-02-18T11:58:56;98851.03;;;12.90;40.90
9740;BME280;4909;42.680;26.324;2023-02-18T12:01:44;98835.50;;;12.98;40.66
9740;BME280;4909;42.680;26.324;2023-02-18T12:04:15;98847.41;;;13.08;40.80
9740;BME280;4909;42.680;26.324;2023-02-18T12:06:49;98836.22;;;13.02;40.28
9740;BME280;4909;42.680;26.324;2023-02-18T12:09:26;98838.13;;;13.17;40.37
9740;BME280;4909;42.680;26.324;2023-02-18T12:11:57;98845.63;;;13.43;39.86
9740;BME280;4909;42.680;26.324;2023-02-18T12:14:24;98834.78;;;13.46;40.17
9740;BME280;4909;42.680;26.324;2023-02-18T12:17:17;98826.00;;;13.12;40.49
9740;BME280;4909;42.680;26.324;2023-02-18T12:20:27;98810.63;;;13.17;40.44
9740;BME280;4909;42.680;26.324;2023-02-18T12:23:08;98813.31;;;12.98;40.63
9740;BME280;4909;42.680;26.324;2023-02-18T12:25:46;98809.59;;;13.19;40.21
9740;BME280;4909;42.680;26.324;2023-02-18T12:28:38;98801.72;;;13.33;40.16
9740;BME280;4909;42.680;26.324;2023-02-18T12:31:33;98801.16;;;13.44;40.03
9740;BME280;4909;42.680;26.324;2023-02-18T12:34:20;98788.13;;;13.71;39.53
9740;BME280;4909;42.680;26.324;2023-02-18T12:37:00;98786.72;;;13.48;40.03
9740;BME280;4909;42.680;26.324;2023-02-18T12:39:39;98803.22;;;13.22;40.69
9740;BME280;4909;42.680;26.324;2023-02-18T12:42:28;98795.84;;;13.27;40.74
9740;BME280;4909;42.680;26.324;2023-02-18T12:45:12;98760.69;;;13.20;40.63
9740;BME280;4909;42.680;26.324;2023-02-18T12:50:55;98775.69;;;13.38;40.92
9740;BME280;4909;42.680;26.324;2023-02-18T12:53:43;98774.63;;;13.25;41.63
9740;BME280;4909;42.680;26.324;2023-02-18T12:56:39;98759.28;;;13.13;42.12
9740;BME280;4909;42.680;26.324;2023-02-18T12:59:19;98779.16;;;13.23;42.30
9740;BME280;4909;42.680;26.324;2023-02-18T13:02:00;98752.38;;;13.42;41.96
9740;BME280;4909;42.680;26.324;2023-02-18T13:04:47;98761.88;;;13.47;42.22
9740;BME280;4909;42.680;26.324;2023-02-18T13:07:46;98739.97;;;13.74;42.36
9740;BME280;4909;42.680;26.324;2023-02-18T13:10:46;98747.28;;;14.17;41.68
9740;BME280;4909;42.680;26.324;2023-02-18T13:13:18;98761.47;;;14.49;41.21
9740;BME280;4909;42.680;26.324;2023-02-18T13:15:49;98735.78;;;14.76;40.70
9740;BME280;4909;42.680;26.324;2023-02-18T13:18:21;98743.75;;;14.92;39.96
9740;BME280;4909;42.680;26.324;2023-02-18T13:20:51;98748.91;;;14.95;40.07
9740;BME280;4909;42.680;26.324;2023-02-18T13:23:25;98732.25;;;15.34;39.71
9740;BME280;4909;42.680;26.324;2023-02-18T13:25:56;98724.81;;;15.53;39.95
9740;BME280;4909;42.680;26.324;2023-02-18T13:28:28;98724.81;;;15.68;39.91
9740;BME280;4909;42.680;26.324;2023-02-18T13:31:09;98729.47;;;15.64;39.54
9740;BME280;4909;42.680;26.324;2023-02-18T13:33:44;98734.28;;;15.73;39.66
9740;BME280;4909;42.680;26.324;2023-02-18T13:36:24;98722.09;;;15.82;39.52
9740;BME280;4909;42.680;26.324;2023-02-18T13:39:01;98720.66;;;15.90;39.69
9740;BME280;4909;42.680;26.324;2023-02-18T13:41:34;98719.25;;;16.12;39.96
9740;BME280;4909;42.680;26.324;2023-02-18T13:44:07;98706.78;;;16.25;39.59